Time;durP1;ratioP1;P1;durP2;ratioP2;P2;SDS_P1;SDS_P2;PMS_P1;PMS_P2;Temp;Humidity;BMP_temperature;BMP_pressure;BME280_temperature;BME280_humidity;BME280_pressure;Samples;Min_cycle;Max_cycle;Signal;HPM_P1;HPM_P2
2023/06/28 03:55:06;;;;;;;10.57;4.00;;;;;;;16.63;81.25;100180.47;5560100;32;173275;-84
2023/06/28 03:58:10;;;;;;;6.25;3.58;;;;;;;16.63;81.25;100180.47;5546737;32;33297;-84
2023/06/28 04:01:12;;;;;;;6.18;3.37;;;;;;;16.16;83.59;100178.69;5546111;32;34528;-83
2023/06/28 04:04:16;;;;;;;4.68;3.35;;;;;;;16.25;87.11;100183.31;5545876;32;33388;-82
2023/06/28 04:07:24;;;;;;;6.70;3.67;;;;;;;16.58;88.17;100186.19;5546339;32;33850;-83
2023/06/28 04:10:28;;;;;;;7.43;3.53;;;;;;;16.69;86.39;100194.22;5545991;32;33824;-83
2023/06/28 04:13:30;;;;;;;6.07;3.15;;;;;;;16.79;83.54;100199.72;5546142;32;33835;-83
2023/06/28 04:16:33;;;;;;;5.80;3.12;;;;;;;16.82;84.38;100194.13;5546338;32;33513;-83
2023/06/28 04:19:36;;;;;;;5.15;3.12;;;;;;;16.90;84.77;100206.06;5545877;32;34686;-84
2023/06/28 04:22:39;;;;;;;5.28;3.30;;;;;;;16.82;82.52;100209.34;5545898;32;33938;-84
2023/06/28 04:25:42;;;;;;;6.07;3.33;;;;;;;17.01;81.56;100205.19;5546326;32;34359;-84
2023/06/28 04:28:44;;;;;;;3.60;3.30;;;;;;;16.80;83.69;100219.34;5545548;32;33880;-84
2023/06/28 04:31:47;;;;;;;5.57;3.33;;;;;;;16.89;83.44;100220.44;5545236;32;33751;-84
2023/06/28 04:34:53;;;;;;;4.43;3.20;;;;;;;17.04;82.55;100215.72;5545454;32;34570;-84
2023/06/28 04:37:56;;;;;;;3.28;2.97;;;;;;;17.22;83.18;100211.56;5546045;32;34026;-84
2023/06/28 04:40:59;;;;;;;5.75;3.22;;;;;;;17.18;83.36;100217.28;5545730;32;33895;-84
2023/06/28 04:44:03;;;;;;;5.80;3.50;;;;;;;17.19;82.04;100216.28;5545300;32;33777;-84
2023/06/28 04:47:06;;;;;;;6.05;3.25;;;;;;;17.22;83.43;100211.56;5545142;32;33909;-84
2023/06/28 04:50:09;;;;;;;5.30;3.60;;;;;;;17.00;82.81;100212.38;5545518;32;34351;-84
2023/06/28 04:53:12;;;;;;;3.55;3.22;;;;;;;17.06;84.06;100211.91;5545566;32;34362;-84
2023/06/28 04:56:15;;;;;;;6.00;3.30;;;;;;;17.18;83.85;100220.81;5545197;32;33552;-84
2023/06/28 04:59:18;;;;;;;3.87;3.10;;;;;;;17.35;82.06;100219.44;5544599;32;33860;-84
2023/06/28 05:02:24;;;;;;;9.15;3.47;;;;;;;17.42;81.58;100227.00;5543156;32;33771;-84
2023/06/28 05:05:29;;;;;;;9.00;3.55;;;;;;;17.58;80.92;100223.91;5534422;32;34529;-84
2023/06/28 05:08:32;;;;;;;6.10;3.67;;;;;;;17.59;81.85;100234.50;5530519;32;33892;-84
2023/06/28 05:11:35;;;;;;;6.90;3.70;;;;;;;17.83;79.10;100241.53;5530054;32;33699;-84
2023/06/28 05:14:37;;;;;;;6.65;3.45;;;;;;;17.91;79.48;100241.72;5529155;32;33657;-84
2023/06/28 05:17:40;;;;;;;6.55;3.33;;;;;;;18.10;78.68;100236.72;5530086;32;33796;-84
2023/06/28 05:20:43;;;;;;;7.37;3.42;;;;;;;17.93;79.99;100233.56;5529343;32;33862;-84
2023/06/28 05:23:46;;;;;;;10.43;3.35;;;;;;;17.87;80.43;100243.00;5529409;32;33730;-84
2023/06/28 05:26:49;;;;;;;6.25;3.37;;;;;;;17.92;81.94;100240.75;5529509;32;34697;-84
2023/06/28 05:29:51;;;;;;;5.30;3.10;;;;;;;17.99;80.45;100254.53;5529335;32;33366;-84
2023/06/28 05:32:54;;;;;;;6.65;3.17;;;;;;;17.79;81.63;100242.75;5529252;32;34831;-84
2023/06/28 05:35:57;;;;;;;4.15;3.25;;;;;;;17.81;80.91;100248.88;5529388;32;34473;-84
2023/06/28 05:39:00;;;;;;;6.55;3.22;;;;;;;17.83;81.64;100252.25;5532972;32;33350;-84
2023/06/28 05:42:03;;;;;;;4.25;3.10;;;;;;;17.84;80.07;100253.09;5542916;32;34518;-87
2023/06/28 05:45:06;;;;;;;9.73;3.40;;;;;;;18.02;78.31;100259.66;5533054;32;33537;-84
2023/06/28 05:48:09;;;;;;;6.00;3.33;;;;;;;18.10;78.12;100255.50;5529795;32;33672;-84
2023/06/28 05:51:14;;;;;;;5.53;3.12;;;;;;;17.89;77.82;100250.87;5515736;32;33674;-84
2023/06/28 05:54:17;;;;;;;4.68;3.40;;;;;;;17.87;78.39;100247.50;5516561;32;34893;-84
2023/06/28 05:57:19;;;;;;;4.57;3.37;;;;;;;17.87;79.42;100247.50;5513165;32;33730;-84
2023/06/28 06:00:22;;;;;;;6.82;3.22;;;;;;;17.79;78.42;100253.47;5521990;32;33568;-84
2023/06/28 06:03:26;;;;;;;5.60;3.03;;;;;;;17.92;77.52;100256.00;5519007;32;33577;-84
2023/06/28 06:06:29;;;;;;;3.17;2.83;;;;;;;18.21;75.49;100251.91;5517142;32;33872;-84
2023/06/28 06:09:32;;;;;;;5.87;3.42;;;;;;;18.08;77.25;100255.62;5529456;32;33804;-84
2023/06/28 06:12:36;;;;;;;4.90;2.95;;;;;;;18.29;75.46;100263.69;5515925;32;35013;-84
2023/06/28 06:15:40;;;;;;;3.85;3.00;;;;;;;18.26;76.99;100266.63;5529087;32;33780;-82
2023/06/28 06:18:42;;;;;;;6.53;3.42;;;;;;;18.38;76.18;100270.13;5519403;32;33930;-81
2023/06/28 06:21:45;;;;;;;3.45;2.87;;;;;;;18.37;75.49;100281.00;5518612;32;33922;-83
2023/06/28 06:24:48;;;;;;;7.90;3.08;;;;;;;18.15;76.66;100280.97;5514894;32;34515;-82
2023/06/28 06:27:51;;;;;;;8.70;3.00;;;;;;;18.37;76.33;100279.16;5536846;32;33786;-82
2023/06/28 06:30:54;;;;;;;5.68;3.10;;;;;;;18.27;75.89;100276.41;5545237;32;33253;-83
2023/06/28 06:34:00;;;;;;;7.60;3.10;;;;;;;17.92;78.42;100280.16;5537715;32;34072;-82
2023/06/28 06:37:04;;;;;;;6.40;3.00;;;;;;;18.08;78.20;100295.88;5550888;32;33370;-83
2023/06/28 06:40:08;;;;;;;5.37;3.15;;;;;;;18.17;77.50;100300.47;5534111;32;34266;-82
2023/06/28 06:43:10;;;;;;;4.57;2.80;;;;;;;18.06;76.30;100305.91;5548358;32;33776;-82
2023/06/28 06:46:13;;;;;;;4.22;2.87;;;;;;;17.96;75.52;100302.22;5537497;32;34122;-82
2023/06/28 06:49:18;;;;;;;7.95;3.03;;;;;;;18.30;75.38;100304.81;5546289;32;33689;-82
2023/06/28 06:52:21;;;;;;;5.40;2.70;;;;;;;18.30;75.33;100308.34;5551834;32;33893;-83
2023/06/28 06:55:24;;;;;;;7.18;3.20;;;;;;;18.38;73.89;100306.84;5545331;32;35244;-84
2023/06/28 06:58:27;;;;;;;3.65;2.78;;;;;;;18.03;74.02;100319.53;5539871;32;33598;-83
2023/06/28 07:01:32;;;;;;;4.10;2.58;;;;;;;18.08;75.42;100313.81;5534161;32;34380;-83
2023/06/28 07:04:35;;;;;;;4.50;2.80;;;;;;;17.77;75.59;100309.94;5538658;32;33964;-83
2023/06/28 07:07:37;;;;;;;6.82;2.87;;;;;;;18.13;74.89;100309.78;5540197;32;34140;-83
2023/06/28 07:10:40;;;;;;;6.35;3.15;;;;;;;17.92;76.74;100307.84;5548298;32;34538;-83
2023/06/28 07:13:43;;;;;;;7.72;2.70;;;;;;;17.64;74.71;100323.50;5553399;32;34331;-83
2023/06/28 07:16:46;;;;;;;7.12;2.78;;;;;;;17.58;75.91;100323.12;5559072;32;34610;-83
2023/06/28 07:19:48;;;;;;;6.47;2.80;;;;;;;17.89;76.24;100321.50;5558669;32;33729;-83
2023/06/28 07:22:51;;;;;;;6.07;2.92;;;;;;;17.88;75.90;100318.94;5543468;32;34650;-84
2023/06/28 07:25:54;;;;;;;7.00;2.65;;;;;;;17.92;75.26;100321.25;5548873;32;34031;-84
2023/06/28 07:28:58;;;;;;;8.90;2.90;;;;;;;17.96;75.76;100324.56;5537506;32;33743;-83
2023/06/28 07:32:01;;;;;;;11.30;2.87;;;;;;;18.19;74.71;100316.44;5539899;32;34178;-83
2023/06/28 07:35:04;;;;;;;6.53;2.78;;;;;;;18.21;75.46;100314.50;5548157;32;33631;-82
2023/06/28 07:38:07;;;;;;;7.82;2.70;;;;;;;17.79;74.97;100317.88;5552577;32;33818;-83
2023/06/28 07:41:10;;;;;;;2.97;2.60;;;;;;;17.64;75.69;100319.97;5549987;32;33419;-83
2023/06/28 07:44:13;;;;;;;7.20;2.95;;;;;;;17.96;75.90;100321.00;5539196;32;33703;-84
2023/06/28 07:47:16;;;;;;;3.30;2.20;;;;;;;17.52;75.26;100321.81;5533567;32;33841;-83
2023/06/28 07:50:20;;;;;;;7.12;2.60;;;;;;;18.01;74.91;100329.53;5541494;32;33928;-83
2023/06/28 07:53:23;;;;;;;13.45;2.50;;;;;;;18.13;72.89;100331.25;5559039;32;33502;-84
2023/06/28 07:56:26;;;;;;;5.25;2.53;;;;;;;18.10;72.06;100336.03;5553484;32;34777;-84
2023/06/28 07:59:29;;;;;;;3.53;2.20;;;;;;;18.45;71.79;100332.22;5549148;32;34121;-84
2023/06/28 08:02:31;;;;;;;10.30;2.35;;;;;;;18.76;69.83;100324.25;5542459;32;35125;-85
2023/06/28 08:05:34;;;;;;;7.40;2.50;;;;;;;18.44;72.88;100325.13;5536568;32;34462;-89
2023/06/28 08:08:37;;;;;;;4.80;2.25;;;;;;;18.77;72.24;100319.72;5531800;32;34001;-90
2023/06/28 08:11:40;;;;;;;15.32;2.92;;;;;;;19.62;68.00;100319.59;5530403;32;34757;-90
2023/06/28 08:14:43;;;;;;;27.17;3.22;;;;;;;20.35;64.96;100312.25;5529473;32;33793;-86
2023/06/28 08:17:47;;;;;;;8.13;2.55;;;;;;;21.66;60.33;100319.72;5529729;32;33607;-84
2023/06/28 08:20:50;;;;;;;6.80;2.00;;;;;;;22.63;57.93;100313.81;5529699;32;33481;-84
2023/06/28 08:23:52;;;;;;;2.30;2.08;;;;;;;21.49;57.57;100314.13;5528928;32;33998;-84
2023/06/28 08:26:55;;;;;;;5.37;2.12;;;;;;;23.30;53.60;100320.47;5527842;32;33721;-85
2023/06/28 08:29:58;;;;;;;9.88;2.05;;;;;;;23.51;51.17;100317.38;5527461;32;33608;-85
2023/06/28 08:33:02;;;;;;;3.83;1.98;;;;;;;23.61;52.73;100319.09;5527205;32;33763;-84
2023/06/28 08:36:05;;;;;;;5.72;2.30;;;;;;;22.56;53.60;100323.53;5526972;32;33808;-85
2023/06/28 08:39:08;;;;;;;4.87;2.22;;;;;;;22.01;55.83;100322.66;5527963;32;34459;-85
2023/06/28 08:42:15;;;;;;;3.97;2.40;;;;;;;21.20;59.92;100320.50;5530917;32;33594;-85
2023/06/28 08:45:18;;;;;;;3.72;2.62;;;;;;;22.05;57.49;100324.91;5530282;32;33792;-85
2023/06/28 08:48:21;;;;;;;3.45;2.40;;;;;;;22.15;55.57;100332.06;5529904;32;34207;-84
2023/06/28 08:51:35;;;;;;;4.57;2.53;;;;;;;21.78;56.64;100328.50;5530778;32;33783;-85
2023/06/28 08:54:39;;;;;;;5.93;2.40;;;;;;;21.58;58.16;100316.91;5544422;32;33648;-84
2023/06/28 08:57:42;;;;;;;4.18;2.83;;;;;;;21.53;59.29;100312.81;5549456;32;34123;-85
2023/06/28 09:00:45;;;;;;;4.37;2.50;;;;;;;21.41;59.47;100314.87;5542478;32;34081;-85
2023/06/28 09:03:48;;;;;;;6.30;3.15;;;;;;;21.25;60.06;100303.84;5536556;32;34208;-85
2023/06/28 09:06:52;;;;;;;3.87;2.60;;;;;;;20.68;62.47;100307.38;5531782;32;34493;-84
2023/06/28 09:09:55;;;;;;;5.72;2.53;;;;;;;20.33;63.36;100301.59;5532537;32;33959;-84
2023/06/28 09:12:58;;;;;;;7.18;2.83;;;;;;;21.03;61.46;100299.69;5532207;32;34123;-84
2023/06/28 09:16:02;;;;;;;4.57;2.70;;;;;;;21.49;62.79;100297.94;5531842;32;33942;-84
2023/06/28 09:19:05;;;;;;;8.52;2.60;;;;;;;22.82;57.91;100296.53;5532567;32;33825;-84
2023/06/28 09:22:11;;;;;;;2.90;2.35;;;;;;;23.82;53.71;100297.87;5532026;32;34129;-85
2023/06/28 09:25:14;;;;;;;2.22;2.00;;;;;;;23.25;53.74;100293.91;5541055;32;33810;-84
2023/06/28 09:28:17;;;;;;;4.15;2.22;;;;;;;23.86;52.75;100289.38;5534161;32;34088;-84
2023/06/28 09:31:30;;;;;;;5.05;2.00;;;;;;;24.34;48.00;100290.50;5531941;32;33836;-84
2023/06/28 09:34:35;;;;;;;3.85;1.90;;;;;;;25.12;46.08;100289.22;5532909;32;33958;-84
2023/06/28 09:37:39;;;;;;;3.53;1.58;;;;;;;25.86;41.40;100292.66;5531570;32;33906;-84
2023/06/28 09:40:41;;;;;;;2.95;2.05;;;;;;;26.31;42.81;100293.75;5532600;32;33891;-86
2023/06/28 09:43:46;;;;;;;4.25;1.80;;;;;;;25.07;41.85;100295.19;5532545;32;33643;-86
2023/06/28 09:46:48;;;;;;;6.82;2.08;;;;;;;25.46;41.82;100293.53;5531618;32;33801;-87
2023/06/28 09:49:57;;;;;;;3.83;1.50;;;;;;;25.60;41.43;100286.53;5537213;32;33977;-86
2023/06/28 09:52:59;;;;;;;4.80;1.77;;;;;;;25.02;40.50;100289.44;5550534;32;33893;-84
2023/06/28 09:56:02;;;;;;;1.87;1.50;;;;;;;26.18;39.64;100299.75;5553450;32;33665;-85
2023/06/28 09:59:07;;;;;;;4.35;1.87;;;;;;;25.93;39.68;100283.63;5542205;32;34618;-84
2023/06/28 10:02:22;;;;;;;5.10;1.77;;;;;;;25.23;40.41;100280.72;5551397;32;33487;-89
2023/06/28 10:05:26;;;;;;;2.67;1.87;;;;;;;26.03;39.17;100271.66;5541517;32;33791;-85
2023/06/28 10:08:29;;;;;;;6.00;2.05;;;;;;;26.43;39.65;100276.97;5536533;32;34362;-85
2023/06/28 10:11:37;;;;;;;2.00;1.50;;;;;;;26.64;36.61;100279.84;5532684;32;34054;-84
2023/06/28 10:14:44;;;;;;;2.20;1.92;;;;;;;26.90;37.41;100278.56;5543585;32;33948;-84
2023/06/28 10:17:47;;;;;;;3.40;1.87;;;;;;;26.01;38.20;100276.44;5537702;32;34695;-84
2023/06/28 10:20:50;;;;;;;1.62;1.52;;;;;;;26.69;38.69;100265.69;5532996;32;33864;-84
2023/06/28 10:23:54;;;;;;;3.25;1.60;;;;;;;27.51;36.12;100267.66;5532468;32;34444;-84
2023/06/28 10:27:01;;;;;;;3.10;1.52;;;;;;;28.73;32.98;100259.66;5552395;32;33980;-84
2023/06/28 10:30:05;;;;;;;4.40;1.73;;;;;;;29.81;31.97;100262.91;5556207;32;33774;-84
2023/06/28 10:33:08;;;;;;;4.72;1.67;;;;;;;30.40;30.53;100259.62;5536301;32;34206;-84
2023/06/28 10:36:12;;;;;;;2.83;1.50;;;;;;;31.18;31.01;100255.28;5537044;32;33648;-84
2023/06/28 10:39:16;;;;;;;2.25;1.77;;;;;;;28.23;34.79;100246.03;5536709;32;33410;-84
2023/06/28 10:42:20;;;;;;;2.53;1.60;;;;;;;28.49;33.88;100244.56;5541031;32;33904;-85
2023/06/28 10:45:36;;;;;;;3.53;1.75;;;;;;;27.01;36.33;100231.00;5530174;32;34121;-84
2023/06/28 10:48:44;;;;;;;3.08;1.60;;;;;;;27.62;34.59;100228.22;5534480;32;33622;-84
2023/06/28 10:51:49;;;;;;;8.98;1.85;;;;;;;26.11;36.92;100239.00;5535081;32;33727;-85
2023/06/28 10:54:52;;;;;;;1.50;1.40;;;;;;;26.01;38.22;100222.94;5535956;32;33524;-85
2023/06/28 10:58:05;;;;;;;2.20;1.65;;;;;;;26.88;36.26;100228.94;5537291;32;33624;-85
2023/06/28 11:01:13;;;;;;;3.90;1.60;;;;;;;27.50;34.57;100233.31;5529515;32;34578;-85
2023/06/28 11:04:21;;;;;;;10.25;1.60;;;;;;;27.79;33.61;100234.25;5527851;32;33852;-84
2023/06/28 11:07:24;;;;;;;5.45;2.10;;;;;;;27.37;34.15;100228.53;5529209;32;33516;-85
2023/06/28 11:10:39;;;;;;;3.95;1.75;;;;;;;27.61;34.90;100231.97;5533744;32;34418;-85
2023/06/28 11:13:50;;;;;;;1.37;1.27;;;;;;;27.52;35.72;100223.91;5534041;32;34400;-85
2023/06/28 11:17:10;;;;;;;5.00;1.75;;;;;;;25.45;38.01;100221.25;5534121;32;34434;-88
2023/06/28 11:20:16;;;;;;;;;;;;;;;25.28;38.83;100225.91;5535878;32;34515;-86
2023/06/28 11:23:29;;;;;;;2.35;1.55;;;;;;;25.54;38.88;100224.78;5535631;32;34846;-86
2023/06/28 11:26:37;;;;;;;3.17;1.70;;;;;;;25.38;39.83;100228.38;5546947;32;33466;-85
2023/06/28 11:30:00;;;;;;;2.33;1.42;;;;;;;25.31;39.65;100220.13;5536734;32;34569;-85
2023/06/28 11:33:03;;;;;;;3.05;1.65;;;;;;;25.13;40.15;100217.66;5533867;32;33676;-85
2023/06/28 11:36:07;;;;;;;2.85;1.70;;;;;;;25.84;37.15;100214.91;5536912;32;33852;-86
2023/06/28 11:39:18;;;;;;;3.17;1.60;;;;;;;26.02;37.99;100207.47;5542754;32;33597;-85
2023/06/28 11:42:21;;;;;;;2.97;1.42;;;;;;;25.54;37.19;100205.78;5563383;32;34086;-85
2023/06/28 11:45:24;;;;;;;2.85;1.77;;;;;;;25.32;38.16;100204.66;5532804;32;34336;-85
2023/06/28 11:48:27;;;;;;;5.55;1.60;;;;;;;24.96;38.11;100193.31;5534619;32;33862;-85
2023/06/28 11:51:31;;;;;;;1.83;1.45;;;;;;;25.53;38.21;100198.62;5540668;32;34511;-86
2023/06/28 11:54:34;;;;;;;2.50;1.52;;;;;;;24.79;37.12;100202.50;5531896;32;33746;-86
2023/06/28 11:57:44;;;;;;;4.07;1.40;;;;;;;25.35;36.85;100197.03;5532955;32;33571;-86
2023/06/28 12:00:47;;;;;;;3.45;1.50;;;;;;;25.61;36.78;100186.88;5535625;32;34224;-87
2023/06/28 12:03:50;;;;;;;2.72;1.62;;;;;;;24.63;37.84;100191.53;5548497;32;35201;-86
2023/06/28 12:06:53;;;;;;;2.30;1.70;;;;;;;24.52;39.05;100182.87;5530005;32;33742;-86
2023/06/28 12:09:56;;;;;;;3.85;1.62;;;;;;;24.52;39.68;100188.31;5529919;32;34900;-85
2023/06/28 12:13:00;;;;;;;10.95;1.83;;;;;;;24.96;37.70;100185.19;5529555;32;33769;-85
2023/06/28 12:16:17;;;;;;;2.35;1.60;;;;;;;24.91;37.94;100190.28;5529199;32;33663;-86
2023/06/28 12:19:24;;;;;;;4.07;1.60;;;;;;;24.62;39.27;100187.13;5536792;32;33751;-86
2023/06/28 12:22:45;;;;;;;7.82;2.17;;;;;;;24.77;39.79;100184.53;5570114;32;34087;-86
2023/06/28 12:25:48;;;;;;;3.53;1.73;;;;;;;24.70;38.69;100191.69;5567961;32;33477;-90
2023/06/28 12:28:51;;;;;;;3.22;1.50;;;;;;;24.50;39.50;100191.22;5537426;32;34144;-86
2023/06/28 12:32:02;;;;;;;4.37;1.60;;;;;;;24.87;38.79;100183.50;5542171;32;33487;-86
2023/06/28 12:35:05;;;;;;;4.18;1.60;;;;;;;25.02;38.88;100179.03;5530342;32;34157;-87
2023/06/28 12:38:08;;;;;;;1.65;1.50;;;;;;;25.38;37.76;100166.81;5535503;32;32271;-86
2023/06/28 12:41:14;;;;;;;2.60;1.52;;;;;;;25.59;37.85;100165.34;5537671;32;33981;-85
2023/06/28 12:44:18;;;;;;;4.68;1.77;;;;;;;24.69;39.26;100164.72;5535879;32;33946;-85
2023/06/28 12:47:23;;;;;;;3.83;1.70;;;;;;;24.93;39.57;100162.97;5532824;32;33958;-85
2023/06/28 12:50:27;;;;;;;2.05;1.50;;;;;;;24.89;39.37;100171.47;5532120;32;34843;-84
2023/06/28 12:53:30;;;;;;;2.70;1.70;;;;;;;24.54;39.75;100164.59;5525336;32;33881;-85
2023/06/28 12:56:34;;;;;;;2.30;1.42;;;;;;;24.94;38.08;100170.91;5538807;32;33749;-85
2023/06/28 12:59:39;;;;;;;3.67;1.52;;;;;;;24.45;38.53;100170.03;5545220;32;34382;-85
2023/06/28 13:02:42;;;;;;;3.58;1.90;;;;;;;24.53;37.79;100180.00;5550974;32;33591;-86
2023/06/28 13:05:45;;;;;;;2.62;1.50;;;;;;;24.34;37.04;100179.37;5550783;32;34146;-85
2023/06/28 13:08:48;;;;;;;1.98;1.33;;;;;;;23.99;38.08;100170.59;5551123;32;34308;-86
2023/06/28 13:11:51;;;;;;;5.18;1.60;;;;;;;24.07;38.22;100173.31;5551262;32;33792;-85
2023/06/28 13:14:53;;;;;;;3.47;1.70;;;;;;;24.65;37.85;100180.50;5550684;32;34659;-86
2023/06/28 13:17:56;;;;;;;3.92;1.80;;;;;;;23.98;40.27;100185.13;5550279;32;33666;-86
2023/06/28 13:20:59;;;;;;;3.72;1.60;;;;;;;23.26;41.96;100197.31;5550023;32;34362;-86
2023/06/28 13:24:06;;;;;;;6.90;1.70;;;;;;;23.17;42.21;100195.63;5550150;32;33417;-86
2023/06/28 13:27:09;;;;;;;2.85;1.48;;;;;;;23.31;43.23;100189.59;5550297;32;33957;-85
2023/06/28 13:30:12;;;;;;;3.80;1.80;;;;;;;23.58;41.53;100190.31;5552234;32;33705;-85
2023/06/28 13:33:14;;;;;;;2.17;1.37;;;;;;;23.93;41.79;100198.34;5553047;32;34063;-84
2023/06/28 13:36:19;;;;;;;6.32;1.55;;;;;;;23.44;40.86;100194.56;5552537;32;34649;-84
2023/06/28 13:39:21;;;;;;;4.90;1.20;;;;;;;23.10;38.26;100204.38;5551703;32;35337;-85
2023/06/28 13:42:25;;;;;;;1.75;1.30;;;;;;;22.61;36.65;100192.31;5551288;32;34469;-84
2023/06/28 13:45:28;;;;;;;4.15;1.25;;;;;;;23.26;37.33;100200.03;5551924;32;33695;-84
2023/06/28 13:48:31;;;;;;;11.02;1.95;;;;;;;22.88;38.92;100198.53;5550588;32;33628;-84
2023/06/28 13:51:34;;;;;;;4.15;1.73;;;;;;;22.53;42.34;100213.03;5550294;32;33824;-85
2023/06/28 13:54:37;;;;;;;2.35;1.90;;;;;;;21.68;48.08;100209.75;5550102;32;33609;-85
2023/06/28 13:57:39;;;;;;;4.00;1.85;;;;;;;21.74;49.02;100219.09;5550795;32;34249;-85
2023/06/28 14:00:42;;;;;;;10.68;1.83;;;;;;;22.25;49.35;100213.13;5550736;32;35004;-84
2023/06/28 14:03:45;;;;;;;7.45;1.80;;;;;;;22.44;49.00;100231.03;5550665;32;33833;-84
2023/06/28 14:06:48;;;;;;;5.95;1.77;;;;;;;22.67;48.44;100220.56;5550563;32;33739;-84
2023/06/28 14:09:51;;;;;;;4.82;1.73;;;;;;;22.13;50.12;100226.06;5550473;32;33758;-84
2023/06/28 14:12:53;;;;;;;3.15;1.80;;;;;;;21.85;52.11;100232.38;5550422;32;33929;-84
2023/06/28 14:15:56;;;;;;;4.85;1.50;;;;;;;21.55;50.88;100231.72;5550026;32;33680;-84
2023/06/28 14:18:59;;;;;;;5.25;1.70;;;;;;;20.80;50.50;100233.44;5550601;32;34828;-84
2023/06/28 14:22:02;;;;;;;1.98;1.10;;;;;;;20.54;51.58;100238.62;5549927;32;33530;-84
2023/06/28 14:25:05;;;;;;;7.03;1.40;;;;;;;20.08;51.72;100233.87;5549859;32;33699;-84
2023/06/28 14:28:08;;;;;;;2.42;1.30;;;;;;;20.33;52.49;100235.09;5550051;32;33502;-88
2023/06/28 14:31:14;;;;;;;2.20;1.62;;;;;;;20.32;52.90;100240.66;5551044;32;33550;-88
2023/06/28 14:34:17;;;;;;;2.30;1.48;;;;;;;20.32;53.75;100225.31;5550365;32;33718;-90
2023/06/28 14:37:20;;;;;;;2.12;1.40;;;;;;;20.45;53.52;100227.72;5549816;32;33867;-86
2023/06/28 14:40:23;;;;;;;2.35;1.73;;;;;;;20.51;53.94;100226.28;5551356;32;34418;-85
2023/06/28 14:43:25;;;;;;;3.17;1.58;;;;;;;20.62;55.66;100227.13;5550688;32;33949;-85
2023/06/28 14:46:28;;;;;;;1.75;1.50;;;;;;;20.83;53.13;100232.31;5551801;32;34243;-84
2023/06/28 14:49:32;;;;;;;2.10;1.30;;;;;;;20.68;53.14;100226.53;5552318;32;33655;-84
2023/06/28 14:52:35;;;;;;;2.58;1.45;;;;;;;20.97;52.65;100223.75;5557262;32;34112;-85
2023/06/28 14:55:38;;;;;;;1.48;1.37;;;;;;;21.14;52.80;100216.72;5554397;32;35267;-85
2023/06/28 14:58:41;;;;;;;3.90;1.50;;;;;;;20.91;53.29;100215.44;5552370;32;33739;-85
2023/06/28 15:01:44;;;;;;;2.95;1.73;;;;;;;21.10;52.29;100225.28;5551665;32;33869;-85
2023/06/28 15:04:47;;;;;;;2.85;1.55;;;;;;;21.18;51.87;100222.69;5551105;32;34935;-85
2023/06/28 15:07:50;;;;;;;3.75;1.50;;;;;;;21.38;50.42;100215.31;5551375;32;34863;-85
2023/06/28 15:10:53;;;;;;;1.83;1.40;;;;;;;21.38;51.51;100211.78;5551463;32;33644;-85
2023/06/28 15:13:56;;;;;;;1.65;1.55;;;;;;;21.28;50.95;100219.94;5550789;32;34188;-85
2023/06/28 15:16:59;;;;;;;3.25;1.20;;;;;;;21.21;50.92;100222.38;5551092;32;33842;-85
2023/06/28 15:20:01;;;;;;;5.43;1.52;;;;;;;21.47;51.07;100218.12;5551051;32;33876;-85
2023/06/28 15:23:06;;;;;;;2.03;1.27;;;;;;;21.61;47.67;100222.12;5550522;32;34050;-85
2023/06/28 15:26:09;;;;;;;2.65;1.60;;;;;;;21.53;47.77;100218.34;5551094;32;33651;-85
